Time;durP1;ratioP1;P1;durP2;ratioP2;P2;SDS_P1;SDS_P2;PMS_P1;PMS_P2;Temp;Humidity;BMP_temperature;BMP_pressure;BME280_temperature;BME280_humidity;BME280_pressure;Samples;Min_cycle;Max_cycle;Signal;HPM_P1;HPM_P2
2021/08/26 00:06:55;;;;;;;16.25;6.50;;;25.90;44.40;;;;;;21142599;27;80934;-71
2021/08/26 00:16:57;;;;;;;15.98;6.13;;;25.90;45.00;;;;;;21143209;27;79935;-72
2021/08/26 00:27:00;;;;;;;9.75;5.75;;;25.70;45.40;;;;;;21118606;27;81116;-74
2021/08/26 00:37:03;;;;;;;14.15;6.22;;;25.60;46.20;;;;;;21127868;27;82469;-71
2021/08/26 00:47:05;;;;;;;14.60;5.88;;;25.50;46.60;;;;;;21131391;27;81754;-73
2021/08/26 00:57:08;;;;;;;13.25;5.50;;;25.40;47.40;;;;;;21148725;27;81050;-75
2021/08/26 01:07:30;;;;;;;14.68;6.25;;;25.30;46.20;;;;;;21147130;27;81038;-71
2021/08/26 01:17:34;;;;;;;15.73;6.05;;;25.20;45.80;;;;;;21148120;27;81898;-73
2021/08/26 01:27:41;;;;;;;21.17;6.07;;;25.00;45.80;;;;;;21127774;27;80410;-72
2021/08/26 01:37:44;;;;;;;13.70;5.85;;;25.00;45.20;;;;;;21126650;27;80744;-70
2021/08/26 01:47:47;;;;;;;13.55;5.07;;;24.60;48.00;;;;;;21143052;27;81333;-71
2021/08/26 01:57:54;;;;;;;19.95;5.68;;;24.50;47.90;;;;;;21126540;27;81272;-71
2021/08/26 02:07:59;;;;;;;12.43;5.70;;;24.30;47.80;;;;;;21125859;27;82375;-72
2021/08/26 02:18:04;;;;;;;14.07;5.63;;;24.20;49.00;;;;;;21124709;27;80212;-72
2021/08/26 02:28:11;;;;;;;14.65;5.20;;;24.10;48.00;;;;;;21141191;27;80899;-74
2021/08/26 02:38:22;;;;;;;19.02;5.10;;;24.00;48.20;;;;;;21123334;27;80760;-74
2021/08/26 02:48:26;;;;;;;13.65;5.93;;;23.90;48.10;;;;;;21117002;27;81179;-72
2021/08/26 02:58:36;;;;;;;10.33;5.70;;;24.00;49.40;;;;;;21139305;27;81076;-72
2021/08/26 03:08:38;;;;;;;12.80;6.15;;;23.90;50.60;;;;;;21121059;27;80886;-71
2021/08/26 03:18:44;;;;;;;13.02;5.65;;;23.90;51.20;;;;;;21138802;27;81152;-76
2021/08/26 03:28:46;;;;;;;11.88;5.90;;;23.80;51.70;;;;;;21120319;27;80816;-72
2021/08/26 03:38:51;;;;;;;15.27;5.40;;;23.70;50.50;;;;;;21138011;27;80013;-71
2021/08/26 03:48:54;;;;;;;16.10;6.97;;;23.50;51.30;;;;;;21119038;27;80349;-71
2021/08/26 03:59:02;;;;;;;14.38;6.60;;;23.50;51.60;;;;;;21120147;27;79871;-73
2021/08/26 04:09:10;;;;;;;19.30;7.00;;;23.40;52.90;;;;;;21124782;27;80660;-70
2021/08/26 04:19:14;;;;;;;14.10;6.60;;;23.20;54.30;;;;;;21133999;27;80657;-70
2021/08/26 04:29:18;;;;;;;13.95;6.80;;;23.20;53.80;;;;;;21152101;27;80857;-72
2021/08/26 04:39:21;;;;;;;17.90;6.80;;;23.10;54.80;;;;;;21115217;27;80534;-74
2021/08/26 04:49:35;;;;;;;18.60;7.22;;;23.00;54.60;;;;;;21151388;27;80829;-70
2021/08/26 04:59:38;;;;;;;13.98;6.47;;;22.90;55.20;;;;;;21131758;27;81416;-71
2021/08/26 05:09:40;;;;;;;17.02;7.68;;;23.00;54.80;;;;;;21148091;27;80526;-72
2021/08/26 05:19:44;;;;;;;15.98;7.90;;;22.90;55.50;;;;;;21127788;27;81018;-72
2021/08/26 05:29:47;;;;;;;16.30;5.65;;;22.90;55.00;;;;;;21128127;27;80475;-72
2021/08/26 05:39:50;;;;;;;15.77;6.60;;;22.80;55.70;;;;;;21171583;27;81338;-71
2021/08/26 05:49:53;;;;;;;15.90;5.70;;;22.80;56.70;;;;;;21194208;27;81833;-71
2021/08/26 05:59:55;;;;;;;17.35;6.57;;;22.90;54.60;;;;;;21195439;27;81877;-75
2021/08/26 06:09:58;;;;;;;11.15;5.97;;;22.90;53.50;;;;;;21212012;27;81254;-69
2021/08/26 06:20:03;;;;;;;12.52;5.50;;;23.00;53.20;;;;;;21217279;27;81705;-71
2021/08/26 06:30:11;;;;;;;12.77;5.80;;;23.30;52.30;;;;;;21210516;27;81072;-71
2021/08/26 06:40:16;;;;;;;15.38;6.05;;;23.40;51.60;;;;;;21214199;27;81395;-71
2021/08/26 06:50:19;;;;;;;13.30;5.70;;;23.60;52.40;;;;;;21215472;27;81189;-73
2021/08/26 07:00:31;;;;;;;14.80;6.37;;;23.90;51.90;;;;;;21215487;27;81526;-72
2021/08/26 07:10:33;;;;;;;16.25;6.53;;;24.20;52.30;;;;;;21193574;27;81452;-68
2021/08/26 07:20:37;;;;;;;14.70;6.70;;;24.30;51.60;;;;;;21177411;27;81287;-65
2021/08/26 07:30:41;;;;;;;15.63;6.68;;;24.50;51.30;;;;;;21213886;27;81278;-65
2021/08/26 07:40:48;;;;;;;21.10;7.80;;;24.80;50.60;;;;;;21194809;27;81225;-67
2021/08/26 07:51:04;;;;;;;16.67;7.03;;;25.10;50.50;;;;;;21228165;27;81493;-67
2021/08/26 08:01:08;;;;;;;19.00;6.50;;;25.30;50.40;;;;;;21205645;27;81150;-66
2021/08/26 08:11:18;;;;;;;25.02;6.43;;;25.60;50.70;;;;;;21222891;27;81500;-65
2021/08/26 08:21:21;;;;;;;23.50;7.78;;;25.50;51.20;;;;;;21203462;27;81913;-69
2021/08/26 08:31:23;;;;;;;25.60;7.60;;;25.50;51.60;;;;;;21204170;27;81677;-66
2021/08/26 08:41:26;;;;;;;24.80;7.30;;;25.90;50.90;;;;;;21218237;27;81864;-66
2021/08/26 08:51:30;;;;;;;25.30;8.55;;;26.60;49.30;;;;;;21203040;27;81382;-66
2021/08/26 09:01:33;;;;;;;19.88;7.22;;;27.10;48.40;;;;;;21222176;27;81880;-68
2021/08/26 09:11:37;;;;;;;27.73;8.10;;;27.20;48.60;;;;;;21203268;27;84182;-65
2021/08/26 09:21:40;;;;;;;21.58;7.43;;;27.70;46.70;;;;;;21221193;27;81757;-70
2021/08/26 09:31:43;;;;;;;17.77;6.13;;;27.90;46.70;;;;;;21219172;27;81498;-65
2021/08/26 09:42:00;;;;;;;24.77;6.50;;;28.40;45.80;;;;;;21199361;27;81194;-66
2021/08/26 09:52:12;;;;;;;24.92;7.15;;;29.30;43.90;;;;;;21195929;27;81146;-69
2021/08/26 10:02:15;;;;;;;24.60;7.93;;;29.80;43.10;;;;;;21218051;27;81895;-68
2021/08/26 10:12:17;;;;;;;21.35;7.32;;;30.90;41.10;;;;;;21194794;27;81320;-70
2021/08/26 10:22:18;;;;;;;16.88;6.20;;;32.00;38.80;;;;;;21194800;27;81622;-69
2021/08/26 10:32:25;;;;;;;18.95;6.60;;;33.20;36.90;;;;;;21210061;27;81461;-65
2021/08/26 10:42:41;;;;;;;17.88;6.03;;;34.60;34.20;;;;;;21184202;27;82163;-66
2021/08/26 10:53:05;;;;;;;22.00;6.97;;;35.60;32.00;;;;;;21195804;27;81415;-65
2021/08/26 11:03:07;;;;;;;16.92;6.40;;;37.50;29.80;;;;;;21213762;27;81651;-66
2021/08/26 11:13:35;;;;;;;16.50;6.20;;;41.00;26.00;;;;;;21192485;27;81403;-66
2021/08/26 11:23:47;;;;;;;18.35;7.18;;;43.50;23.80;;;;;;21192451;27;81050;-65
2021/08/26 11:33:49;;;;;;;15.20;6.80;;;44.90;22.00;;;;;;21192274;27;81899;-65
2021/08/26 11:43:51;;;;;;;16.23;6.30;;;45.20;21.50;;;;;;21194253;27;81548;-65
2021/08/26 11:53:53;;;;;;;15.18;6.90;;;46.50;20.60;;;;;;21190867;27;82702;-65
2021/08/26 12:03:55;;;;;;;14.55;6.15;;;48.80;18.70;;;;;;21194476;27;81633;-67
2021/08/26 12:14:05;;;;;;;12.30;6.78;;;49.90;18.10;;;;;;21189667;27;81762;-67
2021/08/26 12:24:09;;;;;;;15.88;6.40;;;51.30;17.20;;;;;;21189882;27;81233;-66
2021/08/26 12:34:14;;;;;;;18.75;7.43;;;49.90;17.90;;;;;;21203993;27;82012;-64
2021/08/26 12:44:27;;;;;;;15.15;6.13;;;46.70;19.70;;;;;;21195885;27;81834;-67
2021/08/26 12:54:29;;;;;;;12.40;6.25;;;52.50;15.90;;;;;;21202196;27;81337;-65
2021/08/26 13:04:31;;;;;;;13.15;6.35;;;53.90;14.80;;;;;;21202971;27;81343;-66
2021/08/26 13:14:42;;;;;;;18.60;5.95;;;52.60;15.90;;;;;;21202459;27;82555;-64
2021/08/26 13:24:44;;;;;;;15.52;8.35;;;47.90;17.40;;;;;;21196739;27;82916;-64
2021/08/26 13:34:46;;;;;;;10.18;6.30;;;43.60;20.70;;;;;;21198597;27;80995;-64
2021/08/26 13:44:47;;;;;;;10.75;6.00;;;46.00;19.80;;;;;;21196009;27;81842;-65
2021/08/26 13:54:49;;;;;;;9.88;6.00;;;46.40;18.40;;;;;;21219857;27;81668;-66
2021/08/26 14:04:52;;;;;;;13.07;6.70;;;49.50;16.00;;;;;;21196588;27;81413;-67
2021/08/26 14:14:54;;;;;;;13.95;6.32;;;48.60;16.40;;;;;;21200952;27;80862;-68
2021/08/26 14:24:56;;;;;;;10.77;6.30;;;45.40;17.40;;;;;;21202077;27;81548;-67
2021/08/26 14:34:58;;;;;;;16.00;6.55;;;47.20;17.00;;;;;;21200990;27;81228;-67
2021/08/26 14:44:59;;;;;;;79.85;68.25;;;42.30;20.10;;;;;;21197180;27;81682;-66
2021/08/26 14:55:01;;;;;;;14.63;7.07;;;40.90;21.40;;;;;;21190950;27;83609;-68
2021/08/26 15:05:06;;;;;;;10.75;5.65;;;47.20;17.30;;;;;;21207745;27;82971;-67
2021/08/26 15:15:09;;;;;;;10.83;5.73;;;48.60;15.70;;;;;;21209141;27;82343;-68
2021/08/26 15:25:10;;;;;;;34.42;27.42;;;43.30;18.60;;;;;;21207511;27;80027;-68
2021/08/26 15:35:13;;;;;;;26.38;22.80;;;40.50;21.30;;;;;;21215423;27;82500;-67
2021/08/26 15:45:14;;;;;;;20.27;13.32;;;38.40;23.40;;;;;;21213522;27;83330;-67
2021/08/26 16:05:53;;;;;;;26.60;9.27;;;35.00;27.40;;;;;;21116487;27;86304;-66
2021/08/26 16:15:55;;;;;;;27.17;8.68;;;33.50;33.20;;;;;;21220114;27;82472;-69
2021/08/26 16:25:57;;;;;;;12.50;5.53;;;31.60;37.80;;;;;;21220458;27;79963;-67
2021/08/26 16:35:59;;;;;;;13.70;5.72;;;32.00;36.70;;;;;;21214931;27;81758;-67
2021/08/26 16:46:01;;;;;;;17.42;11.18;;;32.20;37.90;;;;;;21229230;27;80088;-69
2021/08/26 16:56:02;;;;;;;16.75;7.38;;;32.50;37.90;;;;;;21203190;27;82661;-70
2021/08/26 17:06:05;;;;;;;17.83;8.70;;;32.70;37.80;;;;;;21215651;27;82125;-68
2021/08/26 17:16:08;;;;;;;16.27;6.72;;;32.90;35.70;;;;;;21215913;27;80701;-70
2021/08/26 17:26:09;;;;;;;14.43;7.10;;;33.50;34.20;;;;;;21215778;27;81106;-67
2021/08/26 17:36:11;;;;;;;12.15;8.23;;;33.90;33.20;;;;;;21215633;27;81031;-67
2021/08/26 17:46:13;;;;;;;13.68;8.02;;;33.40;33.40;;;;;;21213491;27;81118;-68
2021/08/26 17:56:16;;;;;;;12.70;7.68;;;33.20;33.20;;;;;;21213936;27;81736;-69
2021/08/26 18:06:17;;;;;;;15.07;6.57;;;32.60;34.10;;;;;;21212466;27;80847;-69
2021/08/26 18:16:19;;;;;;;12.90;6.20;;;32.40;33.80;;;;;;21212752;27;80407;-68
2021/08/26 18:26:21;;;;;;;14.77;8.25;;;32.00;34.30;;;;;;21229470;27;82247;-68
2021/08/26 18:36:23;;;;;;;15.23;7.25;;;31.70;34.90;;;;;;21229130;27;79937;-70
2021/08/26 18:46:25;;;;;;;12.30;6.72;;;31.20;35.20;;;;;;21209991;27;81159;-69
2021/08/26 18:56:27;;;;;;;11.95;7.15;;;30.90;35.50;;;;;;21228258;27;81856;-70
2021/08/26 19:06:28;;;;;;;20.70;7.85;;;30.50;35.70;;;;;;21227168;27;80128;-70
2021/08/26 19:16:30;;;;;;;13.80;6.80;;;30.20;36.70;;;;;;21209410;27;81322;-74
2021/08/26 19:26:33;;;;;;;16.00;8.60;;;29.90;37.90;;;;;;21209320;27;81240;-73
2021/08/26 19:36:34;;;;;;;14.10;7.22;;;29.60;38.50;;;;;;21205651;27;81914;-72
2021/08/26 19:46:36;;;;;;;13.20;8.30;;;29.40;39.50;;;;;;21206391;27;80705;-72
2021/08/26 19:56:38;;;;;;;25.77;8.55;;;29.20;39.70;;;;;;21225471;27;81424;-73
2021/08/26 20:06:39;;;;;;;19.33;7.78;;;29.00;40.80;;;;;;21224172;27;81740;-74
2021/08/26 20:16:41;;;;;;;28.38;9.02;;;28.70;42.00;;;;;;21204872;27;80100;-74
2021/08/26 20:26:42;;;;;;;15.07;8.80;;;28.60;42.20;;;;;;21204557;27;80778;-71
2021/08/26 20:36:45;;;;;;;15.02;9.15;;;28.40;42.50;;;;;;21223030;27;80787;-75
2021/08/26 20:46:47;;;;;;;21.70;9.20;;;28.30;42.80;;;;;;21222014;27;80912;-74
2021/08/26 20:56:49;;;;;;;16.27;9.57;;;28.30;41.20;;;;;;21216733;27;80296;-74
2021/08/26 21:06:50;;;;;;;20.85;9.70;;;28.20;41.60;;;;;;21216729;27;80052;-73
2021/08/26 21:16:52;;;;;;;19.80;10.55;;;28.00;41.70;;;;;;21216642;27;80671;-73
2021/08/26 21:27:02;;;;;;;24.25;10.38;;;27.80;43.00;;;;;;21223678;27;83073;-73
2021/08/26 21:37:03;;;;;;;21.63;9.07;;;27.60;44.20;;;;;;21203926;27;83935;-71
2021/08/26 21:47:05;;;;;;;19.00;9.98;;;27.60;43.70;;;;;;21214609;27;83226;-73
2021/08/26 21:57:07;;;;;;;18.45;8.50;;;27.50;44.30;;;;;;21202735;27;82658;-71
2021/08/26 22:07:09;;;;;;;19.15;8.32;;;27.40;43.80;;;;;;21211522;27;84235;-72
2021/08/26 22:17:10;;;;;;;17.10;6.43;;;27.20;43.20;;;;;;21214022;27;80699;-73
2021/08/26 22:27:12;;;;;;;12.60;6.22;;;27.00;42.70;;;;;;21212079;27;80752;-72
2021/08/26 22:37:14;;;;;;;18.80;7.40;;;26.80;42.30;;;;;;21210857;27;80726;-72
2021/08/26 22:47:16;;;;;;;17.23;7.68;;;26.60;42.50;;;;;;21210257;27;81778;-73
2021/08/26 22:57:18;;;;;;;19.90;8.13;;;26.30;43.00;;;;;;21209777;27;81592;-73
2021/08/26 23:07:20;;;;;;;15.32;6.47;;;26.20;43.10;;;;;;21208655;27;80514;-72
2021/08/26 23:17:21;;;;;;;16.30;6.60;;;26.10;43.70;;;;;;21226438;27;80511;-73
2021/08/26 23:27:24;;;;;;;15.73;6.63;;;25.90;43.80;;;;;;21224740;27;80035;-72
2021/08/26 23:37:26;;;;;;;13.13;6.32;;;25.80;44.30;;;;;;21205366;27;81612;-71
2021/08/26 23:47:27;;;;;;;13.48;5.75;;;25.70;44.10;;;;;;21205276;27;81215;-71
2021/08/26 23:57:29;;;;;;;18.23;7.18;;;25.50;44.30;;;;;;21205508;27;80558;-73
